sensor_id;sensor_type;location;lat;lon;timestamp;pressure;altitude;pressure_sealevel;temperature;humidity
75063;BME280;63981;51.052;13.754;2023-02-27T00:00:12;101406.25;;;-3.03;82.40
75063;BME280;63981;51.052;13.754;2023-02-27T00:02:41;101353.56;;;-3.34;81.31
75063;BME280;63981;51.052;13.754;2023-02-27T00:05:07;101401.94;;;-3.04;82.01
75063;BME280;63981;51.052;13.754;2023-02-27T00:07:33;101392.34;;;-3.23;81.89
75063;BME280;63981;51.052;13.754;2023-02-27T00:09:59;101402.72;;;-3.14;82.42
75063;BME280;63981;51.052;13.754;2023-02-27T00:12:24;101372.56;;;-3.24;82.53
75063;BME280;63981;51.052;13.754;2023-02-27T00:14:50;101409.78;;;-2.92;82.02
75063;BME280;63981;51.052;13.754;2023-02-27T00:17:16;101408.94;;;-2.91;82.63
75063;BME280;63981;51.052;13.754;2023-02-27T00:19:41;101357.88;;;-3.33;82.52
75063;BME280;63981;51.052;13.754;2023-02-27T00:22:07;101418.25;;;-3.10;82.12
75063;BME280;63981;51.052;13.754;2023-02-27T00:24:33;101406.09;;;-3.21;81.94
75063;BME280;63981;51.052;13.754;2023-02-27T00:26:59;101373.25;;;-3.42;81.95
75063;BME280;63981;51.052;13.754;2023-02-27T00:29:25;101406.03;;;-3.28;82.36
75063;BME280;63981;51.052;13.754;2023-02-27T00:31:51;101392.22;;;-3.34;82.52
75063;BME280;63981;51.052;13.754;2023-02-27T00:34:17;101376.63;;;-3.48;82.70
75063;BME280;63981;51.052;13.754;2023-02-27T00:36:42;101406.84;;;-3.35;82.27
75063;BME280;63981;51.052;13.754;2023-02-27T00:39:08;101359.19;;;-3.76;82.35
75063;BME280;63981;51.052;13.754;2023-02-27T00:41:34;101411.97;;;-3.38;82.89
75063;BME280;63981;51.052;13.754;2023-02-27T00:44:00;101413.66;;;-3.40;83.23
75063;BME280;63981;51.052;13.754;2023-02-27T00:46:25;101410.28;;;-3.36;82.88
75063;BME280;63981;51.052;13.754;2023-02-27T00:48:51;101413.72;;;-3.34;82.82
75063;BME280;63981;51.052;13.754;2023-02-27T00:51:17;101409.53;;;-3.22;82.77
75063;BME280;63981;51.052;13.754;2023-02-27T00:53:44;101379.13;;;-3.54;82.64
75063;BME280;63981;51.052;13.754;2023-02-27T00:56:10;101411.13;;;-3.35;82.84
75063;BME280;63981;51.052;13.754;2023-02-27T00:58:36;101365.19;;;-3.76;82.68
75063;BME280;63981;51.052;13.754;2023-02-27T01:01:02;101412.72;;;-3.49;83.08
75063;BME280;63981;51.052;13.754;2023-02-27T01:03:28;101417.06;;;-3.44;83.16
75063;BME280;63981;51.052;13.754;2023-02-27T01:05:53;101406.72;;;-3.45;82.92
75063;BME280;63981;51.052;13.754;2023-02-27T01:08:19;101377.44;;;-3.52;82.91
75063;BME280;63981;51.052;13.754;2023-02-27T01:10:45;101403.38;;;-3.38;82.81
75063;BME280;63981;51.052;13.754;2023-02-27T01:13:11;101411.97;;;-3.38;82.47
75063;BME280;63981;51.052;13.754;2023-02-27T01:15:37;101411.06;;;-3.41;83.06
75063;BME280;63981;51.052;13.754;2023-02-27T01:18:02;101415.34;;;-3.40;82.53
75063;BME280;63981;51.052;13.754;2023-02-27T01:20:28;101409.44;;;-3.33;82.86
75063;BME280;63981;51.052;13.754;2023-02-27T01:22:54;101411.91;;;-3.42;82.93
75063;BME280;63981;51.052;13.754;2023-02-27T01:25:19;101408.44;;;-3.46;83.33
75063;BME280;63981;51.052;13.754;2023-02-27T01:27:45;101407.59;;;-3.45;83.80
75063;BME280;63981;51.052;13.754;2023-02-27T01:30:11;101406.63;;;-3.53;83.99
75063;BME280;63981;51.052;13.754;2023-02-27T01:32:39;101366.19;;;-3.63;83.47
75063;BME280;63981;51.052;13.754;2023-02-27T01:35:05;101346.19;;;-3.87;83.65
75063;BME280;63981;51.052;13.754;2023-02-27T01:37:31;101406.56;;;-3.61;84.82
75063;BME280;63981;51.052;13.754;2023-02-27T01:39:57;101404.78;;;-3.66;84.79
75063;BME280;63981;51.052;13.754;2023-02-27T01:42:25;101410.00;;;-3.63;85.31
75063;BME280;63981;51.052;13.754;2023-02-27T01:47:42;101396.03;;;-3.80;83.91
75063;BME280;63981;51.052;13.754;2023-02-27T01:50:09;101378.78;;;-3.91;85.16
75063;BME280;63981;51.052;13.754;2023-02-27T01:52:36;101412.28;;;-3.88;84.69
75063;BME280;63981;51.052;13.754;2023-02-27T01:55:04;101392.41;;;-3.98;85.31
75063;BME280;63981;51.052;13.754;2023-02-27T01:57:34;101400.97;;;-4.02;85.20
75063;BME280;63981;51.052;13.754;2023-02-27T02:00:00;101369.69;;;-4.31;86.04
75063;BME280;63981;51.052;13.754;2023-02-27T02:02:33;101368.88;;;-4.28;85.28
75063;BME280;63981;51.052;13.754;2023-02-27T02:05:01;101426.88;;;-3.88;85.27
75063;BME280;63981;51.052;13.754;2023-02-27T02:07:27;101392.25;;;-4.13;85.48
75063;BME280;63981;51.052;13.754;2023-02-27T02:09:58;101369.47;;;-4.49;85.63
75063;BME280;63981;51.052;13.754;2023-02-27T02:12:30;101432.63;;;-4.09;84.91
75063;BME280;63981;51.052;13.754;2023-02-27T02:14:58;101382.34;;;-4.46;84.94
75063;BME280;63981;51.052;13.754;2023-02-27T02:17:45;101383.41;;;-4.32;86.12
75063;BME280;63981;51.052;13.754;2023-02-27T02:45:16;101424.13;;;-4.03;86.39
75063;BME280;63981;51.052;13.754;2023-02-27T02:53:20;101428.38;;;-3.27;86.69
75063;BME280;63981;51.052;13.754;2023-02-27T02:56:23;101449.13;;;-3.16;86.63
75063;BME280;63981;51.052;13.754;2023-02-27T03:01:15;101449.19;;;-3.08;86.40
75063;BME280;63981;51.052;13.754;2023-02-27T03:03:52;101413.97;;;-3.08;85.53
75063;BME280;63981;51.052;13.754;2023-02-27T03:06:33;101450.41;;;-2.62;85.41
75063;BME280;63981;51.052;13.754;2023-02-27T03:09:12;101395.13;;;-2.99;86.03
75063;BME280;63981;51.052;13.754;2023-02-27T03:11:44;101455.56;;;-2.65;84.99
75063;BME280;63981;51.052;13.754;2023-02-27T03:14:26;101458.22;;;-2.59;85.48
75063;BME280;63981;51.052;13.754;2023-02-27T03:16:54;101430.69;;;-2.57;85.15
75063;BME280;63981;51.052;13.754;2023-02-27T03:19:30;101437.75;;;-2.24;83.98
75063;BME280;63981;51.052;13.754;2023-02-27T03:22:14;101456.69;;;-2.23;84.23
75063;BME280;63981;51.052;13.754;2023-02-27T03:24:46;101448.09;;;-2.27;83.96
75063;BME280;63981;51.052;13.754;2023-02-27T03:27:15;101441.19;;;-2.28;84.73
75063;BME280;63981;51.052;13.754;2023-02-27T03:32:20;101456.78;;;-2.13;84.25
75063;BME280;63981;51.052;13.754;2023-02-27T03:34:47;101429.28;;;-1.98;82.93
75063;BME280;63981;51.052;13.754;2023-02-27T03:42:56;101472.28;;;-2.11;83.40
75063;BME280;63981;51.052;13.754;2023-02-27T03:45:44;101369.63;;;-2.56;83.97
75063;BME280;63981;51.052;13.754;2023-02-27T03:48:14;101470.63;;;-2.01;84.39
75063;BME280;63981;51.052;13.754;2023-02-27T03:50:40;101444.72;;;-2.17;84.24
75063;BME280;63981;51.052;13.754;2023-02-27T03:55:52;101462.88;;;-1.98;84.62
75063;BME280;63981;51.052;13.754;2023-02-27T03:58:19;101456.75;;;-2.19;84.57
75063;BME280;63981;51.052;13.754;2023-02-27T04:00:45;101473.19;;;-2.00;83.69
75063;BME280;63981;51.052;13.754;2023-02-27T04:03:11;101465.50;;;-1.86;82.91
75063;BME280;63981;51.052;13.754;2023-02-27T04:05:37;101473.31;;;-1.75;81.73
75063;BME280;63981;51.052;13.754;2023-02-27T04:08:20;101471.59;;;-1.81;82.61
75063;BME280;63981;51.052;13.754;2023-02-27T04:11:00;101468.03;;;-1.97;82.63
75063;BME280;63981;51.052;13.754;2023-02-27T04:13:45;101466.25;;;-2.12;83.05
75063;BME280;63981;51.052;13.754;2023-02-27T04:26:56;101485.31;;;-1.90;82.12
75063;BME280;63981;51.052;13.754;2023-02-27T04:32:16;101481.94;;;-1.72;82.46
75063;BME280;63981;51.052;13.754;2023-02-27T04:35:08;101470.84;;;-1.50;81.60
75063;BME280;63981;51.052;13.754;2023-02-27T04:37:49;101475.94;;;-1.68;80.81
75063;BME280;63981;51.052;13.754;2023-02-27T04:40:35;101477.69;;;-1.64;82.03
75063;BME280;63981;51.052;13.754;2023-02-27T04:43:06;101422.44;;;-1.87;81.43
75063;BME280;63981;51.052;13.754;2023-02-27T04:45:34;101471.75;;;-1.29;79.94
75063;BME280;63981;51.052;13.754;2023-02-27T04:48:07;101467.38;;;-1.56;81.03
75063;BME280;63981;51.052;13.754;2023-02-27T04:50:39;101480.31;;;-1.55;81.63
75063;BME280;63981;51.052;13.754;2023-02-27T04:53:12;101489.75;;;-1.66;82.16
75063;BME280;63981;51.052;13.754;2023-02-27T04:55:44;101487.97;;;-1.74;81.28
75063;BME280;63981;51.052;13.754;2023-02-27T04:58:18;101498.41;;;-1.56;82.26
75063;BME280;63981;51.052;13.754;2023-02-27T05:00:51;101494.09;;;-1.53;82.37
75063;BME280;63981;51.052;13.754;2023-02-27T05:03:26;101495.03;;;-1.20;80.90
75063;BME280;63981;51.052;13.754;2023-02-27T05:05:57;101462.13;;;-1.71;81.52
75063;BME280;63981;51.052;13.754;2023-02-27T05:08:31;101495.91;;;-1.21;81.08
75063;BME280;63981;51.052;13.754;2023-02-27T05:11:12;101510.66;;;-0.71;80.40
75063;BME280;63981;51.052;13.754;2023-02-27T05:13:52;101479.56;;;-0.99;79.11
75063;BME280;63981;51.052;13.754;2023-02-27T05:16:27;101528.75;;;-0.85;78.84
75063;BME280;63981;51.052;13.754;2023-02-27T05:18:58;101525.19;;;-1.39;79.07
75063;BME280;63981;51.052;13.754;2023-02-27T05:24:09;101524.34;;;-1.27;79.19
75063;BME280;63981;51.052;13.754;2023-02-27T05:26:48;101525.94;;;-1.63;79.45
75063;BME280;63981;51.052;13.754;2023-02-27T05:29:50;101528.38;;;-1.87;79.46
75063;BME280;63981;51.052;13.754;2023-02-27T05:35:33;101527.75;;;-1.33;78.89
75063;BME280;63981;51.052;13.754;2023-02-27T05:40:38;101484.44;;;-1.93;81.09
75063;BME280;63981;51.052;13.754;2023-02-27T05:43:14;101525.00;;;-1.80;79.69
75063;BME280;63981;51.052;13.754;2023-02-27T05:45:43;101528.38;;;-1.86;80.28
75063;BME280;63981;51.052;13.754;2023-02-27T05:48:12;101536.13;;;-1.89;80.43
75063;BME280;63981;51.052;13.754;2023-02-27T05:50:41;101458.41;;;-2.31;80.48
75063;BME280;63981;51.052;13.754;2023-02-27T05:53:12;101507.78;;;-1.70;79.40
75063;BME280;63981;51.052;13.754;2023-02-27T05:55:49;101538.03;;;-1.56;80.35
75063;BME280;63981;51.052;13.754;2023-02-27T05:58:25;101550.84;;;-1.72;79.28
75063;BME280;63981;51.052;13.754;2023-02-27T06:00:57;101546.63;;;-1.60;80.35
75063;BME280;63981;51.052;13.754;2023-02-27T06:03:24;101538.00;;;-1.59;80.24
75063;BME280;63981;51.052;13.754;2023-02-27T06:05:52;101537.25;;;-1.41;78.96
75063;BME280;63981;51.052;13.754;2023-02-27T06:08:21;101568.22;;;-1.53;78.95
75063;BME280;63981;51.052;13.754;2023-02-27T06:10:47;101566.50;;;-1.53;79.30
75063;BME280;63981;51.052;13.754;2023-02-27T06:13:15;101566.50;;;-1.46;79.82
75063;BME280;63981;51.052;13.754;2023-02-27T06:15:42;101564.09;;;-1.02;79.02
75063;BME280;63981;51.052;13.754;2023-02-27T06:18:09;101491.59;;;-1.22;76.89
75063;BME280;63981;51.052;13.754;2023-02-27T06:20:35;101556.38;;;-0.84;77.09
75063;BME280;63981;51.052;13.754;2023-02-27T06:23:01;101567.47;;;-1.20;77.87
75063;BME280;63981;51.052;13.754;2023-02-27T06:25:27;101570.91;;;-1.27;77.52
75063;BME280;63981;51.052;13.754;2023-02-27T06:27:52;101544.97;;;-1.44;78.65
75063;BME280;63981;51.052;13.754;2023-02-27T06:30:18;101570.06;;;-1.19;77.61
75063;BME280;63981;51.052;13.754;2023-02-27T06:32:44;101520.00;;;-1.33;77.62
75063;BME280;63981;51.052;13.754;2023-02-27T06:35:10;101526.09;;;-1.20;77.47
75063;BME280;63981;51.052;13.754;2023-02-27T06:37:36;101536.47;;;-1.05;78.04
75063;BME280;63981;51.052;13.754;2023-02-27T06:40:02;101577.97;;;-0.71;78.04
75063;BME280;63981;51.052;13.754;2023-02-27T06:42:31;101521.00;;;-0.85;77.12
75063;BME280;63981;51.052;13.754;2023-02-27T06:44:57;101533.97;;;-0.65;77.07
75063;BME280;63981;51.052;13.754;2023-02-27T06:47:23;101578.84;;;-0.04;75.65
75063;BME280;63981;51.052;13.754;2023-02-27T06:49:49;101553.78;;;-0.03;75.16
75063;BME280;63981;51.052;13.754;2023-02-27T06:52:14;101571.09;;;0.01;75.01
75063;BME280;63981;51.052;13.754;2023-02-27T06:54:40;101475.28;;;-0.51;74.24
75063;BME280;63981;51.052;13.754;2023-02-27T06:57:06;101557.22;;;0.10;73.60
75063;BME280;63981;51.052;13.754;2023-02-27T06:59:31;101580.56;;;0.19;73.27
75063;BME280;63981;51.052;13.754;2023-02-27T07:01:57;101531.34;;;0.04;73.73
75063;BME280;63981;51.052;13.754;2023-02-27T07:04:23;101560.59;;;0.45;72.90
75063;BME280;63981;51.052;13.754;2023-02-27T07:06:50;101506.31;;;-0.20;72.29
75063;BME280;63981;51.052;13.754;2023-02-27T07:09:16;101565.84;;;0.30;73.43
75063;BME280;63981;51.052;13.754;2023-02-27T07:11:41;101583.16;;;0.26;73.77
75063;BME280;63981;51.052;13.754;2023-02-27T07:14:07;101572.69;;;0.52;72.00
75063;BME280;63981;51.052;13.754;2023-02-27T07:16:36;101575.31;;;0.39;72.42
75063;BME280;63981;51.052;13.754;2023-02-27T07:19:02;101566.59;;;0.58;72.29
75063;BME280;63981;51.052;13.754;2023-02-27T07:21:27;101513.22;;;-0.09;72.82
75063;BME280;63981;51.052;13.754;2023-02-27T07:23:53;101571.88;;;0.34;73.05
75063;BME280;63981;51.052;13.754;2023-02-27T07:26:19;101570.06;;;0.66;72.61
75063;BME280;63981;51.052;13.754;2023-02-27T07:28:45;101571.66;;;0.88;72.31
75063;BME280;63981;51.052;13.754;2023-02-27T07:31:10;101558.84;;;0.56;72.17
75063;BME280;63981;51.052;13.754;2023-02-27T07:33:36;101579.44;;;0.93;72.17
75063;BME280;63981;51.052;13.754;2023-02-27T07:36:02;101569.78;;;1.18;69.78
75063;BME280;63981;51.052;13.754;2023-02-27T07:38:28;101576.06;;;0.79;69.73
75063;BME280;63981;51.052;13.754;2023-02-27T07:40:56;101569.69;;;1.35;69.64
75063;BME280;63981;51.052;13.754;2023-02-27T07:43:24;101570.25;;;1.75;68.47
75063;BME280;63981;51.052;13.754;2023-02-27T07:45:49;101572.28;;;1.35;69.86
75063;BME280;63981;51.052;13.754;2023-02-27T07:48:17;101549.41;;;1.80;66.56
75063;BME280;63981;51.052;13.754;2023-02-27T07:50:43;101565.28;;;1.44;68.88
75063;BME280;63981;51.052;13.754;2023-02-27T07:53:09;101577.94;;;1.87;67.04
75063;BME280;63981;51.052;13.754;2023-02-27T07:55:37;101575.41;;;1.78;65.74
75063;BME280;63981;51.052;13.754;2023-02-27T07:58:03;101533.66;;;1.95;64.76
75063;BME280;63981;51.052;13.754;2023-02-27T08:00:29;101537.22;;;1.86;64.83
75063;BME280;63981;51.052;13.754;2023-02-27T08:02:55;101572.56;;;2.09;64.91
75063;BME280;63981;51.052;13.754;2023-02-27T08:05:20;101578.84;;;1.80;65.35
75063;BME280;63981;51.052;13.754;2023-02-27T08:07:46;101586.50;;;1.98;65.33
75063;BME280;63981;51.052;13.754;2023-02-27T08:10:12;101596.63;;;2.27;65.31
75063;BME280;63981;51.052;13.754;2023-02-27T08:12:40;101585.25;;;2.39;64.23
75063;BME280;63981;51.052;13.754;2023-02-27T08:15:06;101587.16;;;2.20;63.96
75063;BME280;63981;51.052;13.754;2023-02-27T08:17:32;101603.34;;;2.50;64.98
75063;BME280;63981;51.052;13.754;2023-02-27T08:19:57;101597.78;;;2.79;63.17
75063;BME280;63981;51.052;13.754;2023-02-27T08:22:24;101596.09;;;2.76;63.79
75063;BME280;63981;51.052;13.754;2023-02-27T08:24:50;101595.22;;;3.42;61.56
75063;BME280;63981;51.052;13.754;2023-02-27T08:27:16;101600.78;;;3.17;61.42
75063;BME280;63981;51.052;13.754;2023-02-27T08:29:42;101580.03;;;3.08;62.53
75063;BME280;63981;51.052;13.754;2023-02-27T08:32:08;101603.50;;;3.08;63.09
75063;BME280;63981;51.052;13.754;2023-02-27T08:34:34;101601.00;;;3.61;61.44
75063;BME280;63981;51.052;13.754;2023-02-27T08:36:59;101582.53;;;3.17;61.25
75063;BME280;63981;51.052;13.754;2023-02-27T08:39:25;101603.34;;;3.19;61.82
75063;BME280;63981;51.052;13.754;2023-02-27T08:41:51;101551.13;;;2.63;62.79
75063;BME280;63981;51.052;13.754;2023-02-27T08:44:18;101608.81;;;3.01;62.96
75063;BME280;63981;51.052;13.754;2023-02-27T08:46:44;101612.06;;;3.75;62.49
75063;BME280;63981;51.052;13.754;2023-02-27T08:49:09;101578.16;;;3.75;60.95
75063;BME280;63981;51.052;13.754;2023-02-27T08:51:35;101605.25;;;4.20;59.41
75063;BME280;63981;51.052;13.754;2023-02-27T08:54:01;101610.91;;;4.43;59.52
75063;BME280;63981;51.052;13.754;2023-02-27T08:56:27;101607.31;;;5.32;56.36
75063;BME280;63981;51.052;13.754;2023-02-27T08:58:54;101561.06;;;4.97;55.37
75063;BME280;63981;51.052;13.754;2023-02-27T09:01:20;101615.78;;;4.62;56.31
75063;BME280;63981;51.052;13.754;2023-02-27T09:03:46;101595.66;;;4.21;58.82
75063;BME280;63981;51.052;13.754;2023-02-27T09:06:12;101609.63;;;5.06;57.27
75063;BME280;63981;51.052;13.754;2023-02-27T09:08:38;101555.25;;;5.23;55.56
75063;BME280;63981;51.052;13.754;2023-02-27T09:11:04;101553.34;;;4.05;57.45
75063;BME280;63981;51.052;13.754;2023-02-27T09:13:30;101624.16;;;5.21;56.00
75063;BME280;63981;51.052;13.754;2023-02-27T09:15:56;101612.06;;;6.27;54.18
75063;BME280;63981;51.052;13.754;2023-02-27T09:18:22;101590.31;;;5.90;54.84
75063;BME280;63981;51.052;13.754;2023-02-27T09:20:49;101613.59;;;6.01;54.33
75063;BME280;63981;51.052;13.754;2023-02-27T09:23:15;101600.00;;;6.54;52.22
75063;BME280;63981;51.052;13.754;2023-02-27T09:25:41;101559.44;;;6.36;50.86
75063;BME280;63981;51.052;13.754;2023-02-27T09:28:07;101593.84;;;6.55;51.09
75063;BME280;63981;51.052;13.754;2023-02-27T09:30:33;101539.66;;;5.56;52.65
75063;BME280;63981;51.052;13.754;2023-02-27T09:32:59;101537.84;;;4.84;55.56
75063;BME280;63981;51.052;13.754;2023-02-27T09:35:24;101597.16;;;5.19;53.26
75063;BME280;63981;51.052;13.754;2023-02-27T09:37:50;101624.56;;;4.58;57.59
75063;BME280;63981;51.052;13.754;2023-02-27T09:40:24;101615.31;;;6.02;55.66
75063;BME280;63981;51.052;13.754;2023-02-27T09:42:51;101581.34;;;7.51;49.44
75063;BME280;63981;51.052;13.754;2023-02-27T09:45:24;101561.88;;;7.04;51.59
75063;BME280;63981;51.052;13.754;2023-02-27T09:47:59;101600.16;;;6.15;53.73
75063;BME280;63981;51.052;13.754;2023-02-27T09:50:46;101615.56;;;6.27;53.24
75063;BME280;63981;51.052;13.754;2023-02-27T09:53:17;101606.56;;;6.68;52.10
75063;BME280;63981;51.052;13.754;2023-02-27T09:55:47;101605.22;;;6.21;53.35
75063;BME280;63981;51.052;13.754;2023-02-27T09:58:28;101610.91;;;6.37;53.95
75063;BME280;63981;51.052;13.754;2023-02-27T10:01:12;101550.38;;;6.47;52.28
75063;BME280;63981;51.052;13.754;2023-02-27T10:06:42;101623.81;;;6.10;53.85
75063;BME280;63981;51.052;13.754;2023-02-27T10:16:51;101581.84;;;6.77;52.13
75063;BME280;63981;51.052;13.754;2023-02-27T10:19:26;101615.47;;;6.30;54.01
75063;BME280;63981;51.052;13.754;2023-02-27T10:21:54;101636.41;;;5.57;55.70
75063;BME280;63981;51.052;13.754;2023-02-27T10:24:41;101634.81;;;5.12;56.74
75063;BME280;63981;51.052;13.754;2023-02-27T10:27:15;101639.03;;;4.74;57.25
75063;BME280;63981;51.052;13.754;2023-02-27T10:29:42;101643.84;;;4.00;60.05
75063;BME280;63981;51.052;13.754;2023-02-27T10:32:14;101639.00;;;4.28;60.85
75063;BME280;63981;51.052;13.754;2023-02-27T10:34:42;101642.44;;;4.33;60.79
75063;BME280;63981;51.052;13.754;2023-02-27T10:37:14;101642.84;;;4.58;58.01
75063;BME280;63981;51.052;13.754;2023-02-27T10:39:50;101573.88;;;5.10;57.02
75063;BME280;63981;51.052;13.754;2023-02-27T10:42:17;101604.56;;;6.13;52.70
75063;BME280;63981;51.052;13.754;2023-02-27T10:44:43;101634.59;;;5.98;54.23
75063;BME280;63981;51.052;13.754;2023-02-27T10:47:15;101631.66;;;6.44;53.32
75063;BME280;63981;51.052;13.754;2023-02-27T10:49:42;101634.44;;;6.71;52.92
75063;BME280;63981;51.052;13.754;2023-02-27T10:52:09;101633.47;;;7.06;52.97
75063;BME280;63981;51.052;13.754;2023-02-27T10:54:36;101609.91;;;5.71;55.56
75063;BME280;63981;51.052;13.754;2023-02-27T10:57:06;101631.75;;;5.31;57.05
75063;BME280;63981;51.052;13.754;2023-02-27T10:59:43;101626.41;;;5.38;58.18
75063;BME280;63981;51.052;13.754;2023-02-27T11:04:46;101632.03;;;5.58;56.78
75063;BME280;63981;51.052;13.754;2023-02-27T11:07:13;101590.59;;;6.14;55.10
75063;BME280;63981;51.052;13.754;2023-02-27T11:09:58;101605.88;;;5.95;56.08
75063;BME280;63981;51.052;13.754;2023-02-27T11:12:31;101611.00;;;7.25;53.99
75063;BME280;63981;51.052;13.754;2023-02-27T11:14:59;101601.91;;;7.91;52.39
75063;BME280;63981;51.052;13.754;2023-02-27T11:17:31;101594.78;;;8.21;51.34
75063;BME280;63981;51.052;13.754;2023-02-27T11:19:59;101608.34;;;7.55;52.19
75063;BME280;63981;51.052;13.754;2023-02-27T11:22:29;101600.31;;;6.41;54.88
75063;BME280;63981;51.052;13.754;2023-02-27T11:25:16;101588.00;;;7.35;52.55
75063;BME280;63981;51.052;13.754;2023-02-27T11:27:43;101606.69;;;7.52;51.17
75063;BME280;63981;51.052;13.754;2023-02-27T11:30:24;101598.13;;;6.25;55.10
75063;BME280;63981;51.052;13.754;2023-02-27T11:32:55;101616.75;;;6.79;54.18
75063;BME280;63981;51.052;13.754;2023-02-27T11:35:32;101609.41;;;7.49;52.98
75063;BME280;63981;51.052;13.754;2023-02-27T11:38:01;101553.66;;;7.43;52.40
75063;BME280;63981;51.052;13.754;2023-02-27T11:40:32;101599.91;;;8.51;49.66
75063;BME280;63981;51.052;13.754;2023-02-27T11:43:04;101605.44;;;7.90;49.84
75063;BME280;63981;51.052;13.754;2023-02-27T11:45:34;101603.56;;;7.39;50.68
75063;BME280;63981;51.052;13.754;2023-02-27T11:48:08;101592.94;;;7.98;49.20
75063;BME280;63981;51.052;13.754;2023-02-27T11:53:17;101581.50;;;9.21;46.00
75063;BME280;63981;51.052;13.754;2023-02-27T11:55:53;101583.75;;;9.08;46.31
75063;BME280;63981;51.052;13.754;2023-02-27T11:58:25;101571.81;;;8.53;46.96
75063;BME280;63981;51.052;13.754;2023-02-27T12:00:57;101589.56;;;7.68;50.05
75063;BME280;63981;51.052;13.754;2023-02-27T12:06:18;101577.84;;;7.79;49.27
75063;BME280;63981;51.052;13.754;2023-02-27T12:08:52;101588.69;;;7.68;49.78
75063;BME280;63981;51.052;13.754;2023-02-27T12:11:48;101559.03;;;7.38;51.02
75063;BME280;63981;51.052;13.754;2023-02-27T12:14:28;101559.81;;;8.69;48.30
75063;BME280;63981;51.052;13.754;2023-02-27T12:17:28;101571.59;;;9.50;46.79
75063;BME280;63981;51.052;13.754;2023-02-27T12:20:26;101574.97;;;10.38;44.20
75063;BME280;63981;51.052;13.754;2023-02-27T12:22:53;101574.25;;;9.28;46.28
75063;BME280;63981;51.052;13.754;2023-02-27T12:25:40;101575.72;;;9.13;45.84
75063;BME280;63981;51.052;13.754;2023-02-27T12:28:29;101577.31;;;8.94;45.09
75063;BME280;63981;51.052;13.754;2023-02-27T12:33:49;101575.25;;;8.78;46.74
75063;BME280;63981;51.052;13.754;2023-02-27T12:36:17;101568.22;;;9.24;45.77
75063;BME280;63981;51.052;13.754;2023-02-27T12:38:43;101535.09;;;8.75;43.44
75063;BME280;63981;51.052;13.754;2023-02-27T12:41:32;101572.09;;;8.92;44.07
75063;BME280;63981;51.052;13.754;2023-02-27T12:54:55;101545.19;;;9.31;44.21
75063;BME280;63981;51.052;13.754;2023-02-27T13:01:04;101564.66;;;10.52;41.47
75063;BME280;63981;51.052;13.754;2023-02-27T13:03:19;101538.28;;;13.14;37.73
75063;BME280;63981;51.052;13.754;2023-02-27T13:06:05;101551.28;;;14.69;34.89
75063;BME280;63981;51.052;13.754;2023-02-27T13:08:49;101547.91;;;14.08;34.52
75063;BME280;63981;51.052;13.754;2023-02-27T13:14:27;101561.09;;;11.11;38.40
75063;BME280;63981;51.052;13.754;2023-02-27T13:17:22;101555.00;;;11.28;36.79
75063;BME280;63981;51.052;13.754;2023-02-27T13:20:01;101558.59;;;10.89;39.30
75063;BME280;63981;51.052;13.754;2023-02-27T13:25:14;101568.22;;;9.02;39.37
75063;BME280;63981;51.052;13.754;2023-02-27T13:27:47;101577.44;;;7.64;42.81
75063;BME280;63981;51.052;13.754;2023-02-27T13:30:31;101578.25;;;8.18;43.90
75063;BME280;63981;51.052;13.754;2023-02-27T13:35:53;101571.56;;;7.30;45.58
75063;BME280;63981;51.052;13.754;2023-02-27T13:38:31;101572.75;;;8.25;44.89
75063;BME280;63981;51.052;13.754;2023-02-27T13:46:25;101576.22;;;7.48;44.10
75063;BME280;63981;51.052;13.754;2023-02-27T13:56:49;101564.59;;;9.28;38.68
75063;BME280;63981;51.052;13.754;2023-02-27T13:59:27;101541.47;;;11.16;35.70
75063;BME280;63981;51.052;13.754;2023-02-27T14:04:24;101534.25;;;18.72;25.26
75063;BME280;63981;51.052;13.754;2023-02-27T14:06:57;101530.00;;;17.18;24.01
75063;BME280;63981;51.052;13.754;2023-02-27T14:09:23;101559.41;;;13.47;28.78
75063;BME280;63981;51.052;13.754;2023-02-27T14:11:53;101548.34;;;16.73;23.78
75063;BME280;63981;51.052;13.754;2023-02-27T14:17:04;101556.63;;;15.10;23.94
75063;BME280;63981;51.052;13.754;2023-02-27T14:24:39;101520.25;;;12.25;26.76
75063;BME280;63981;51.052;13.754;2023-02-27T14:27:23;101544.59;;;13.59;25.46
75063;BME280;63981;51.052;13.754;2023-02-27T14:29:55;101504.78;;;17.59;20.00
75063;BME280;63981;51.052;13.754;2023-02-27T14:32:31;101551.31;;;16.31;21.69
75063;BME280;63981;51.052;13.754;2023-02-27T14:34:58;101515.69;;;17.32;21.23
75063;BME280;63981;51.052;13.754;2023-02-27T14:37:25;101546.50;;;19.63;19.00
75063;BME280;63981;51.052;13.754;2023-02-27T14:39:53;101552.00;;;18.05;19.96
75063;BME280;63981;51.052;13.754;2023-02-27T14:42:43;101585.44;;;11.53;26.38
75063;BME280;63981;51.052;13.754;2023-02-27T14:45:16;101583.16;;;9.89;31.09
75063;BME280;63981;51.052;13.754;2023-02-27T14:47:44;101587.25;;;9.09;32.98
75063;BME280;63981;51.052;13.754;2023-02-27T14:52:47;101580.00;;;7.66;35.16
75063;BME280;63981;51.052;13.754;2023-02-27T14:57:39;101554.06;;;5.72;38.38
75063;BME280;63981;51.052;13.754;2023-02-27T15:00:05;101604.16;;;6.28;37.78
75063;BME280;63981;51.052;13.754;2023-02-27T15:02:33;101621.38;;;6.04;39.09
75063;BME280;63981;51.052;13.754;2023-02-27T15:07:28;101629.81;;;4.99;42.42
75063;BME280;63981;51.052;13.754;2023-02-27T15:09:58;101645.09;;;4.76;43.31
75063;BME280;63981;51.052;13.754;2023-02-27T15:12:26;101615.84;;;4.11;44.10
75063;BME280;63981;51.052;13.754;2023-02-27T15:14:57;101627.22;;;4.55;42.77
75063;BME280;63981;51.052;13.754;2023-02-27T15:17:36;101577.69;;;4.50;43.63
75063;BME280;63981;51.052;13.754;2023-02-27T15:22:46;101611.69;;;3.44;48.28
75063;BME280;63981;51.052;13.754;2023-02-27T15:25:32;101656.88;;;4.00;48.95
75063;BME280;63981;51.052;13.754;2023-02-27T15:28:13;101648.81;;;2.95;53.12